Time;durP1;ratioP1;P1;durP2;ratioP2;P2;SDS_P1;SDS_P2;PMS_P1;PMS_P2;Temp;Humidity;BMP_temperature;BMP_pressure;BME280_temperature;BME280_humidity;BME280_pressure;Samples;Min_cycle;Max_cycle;Signal;HPM_P1;HPM_P2
2022/06/21 00:00:07;;;;;;;17.15;15.98;;;;;;;15.53;100.00;98514.63;2097868;28;20904;-72
2022/06/21 00:01:11;;;;;;;16.70;15.60;;;;;;;15.48;100.00;98512.97;2098138;28;20225;-72
2022/06/21 00:02:13;;;;;;;16.60;15.20;;;;;;;15.43;100.00;98520.47;2099556;28;20424;-72
2022/06/21 00:03:18;;;;;;;16.30;15.30;;;;;;;15.39;100.00;98511.53;2100169;28;20450;-72
2022/06/21 00:04:20;;;;;;;16.05;15.05;;;;;;;15.33;100.00;98511.00;2100106;28;20537;-73
2022/06/21 00:05:24;;;;;;;16.48;15.05;;;;;;;15.31;100.00;98507.88;2100373;28;20178;-73
2022/06/21 00:06:28;;;;;;;16.17;15.13;;;;;;;15.27;100.00;98520.41;2099832;28;20221;-72
2022/06/21 00:07:30;;;;;;;16.25;15.15;;;;;;;15.27;100.00;98523.88;2100131;28;20605;-72
2022/06/21 00:08:33;;;;;;;16.45;15.15;;;;;;;15.24;100.00;98521.88;2100263;28;20186;-72
2022/06/21 00:09:35;;;;;;;16.30;15.05;;;;;;;15.25;100.00;98528.81;2099428;28;20222;-72
2022/06/21 00:10:36;;;;;;;16.60;15.60;;;;;;;15.30;100.00;98533.19;2099619;28;20201;-72
2022/06/21 00:11:37;;;;;;;17.50;16.40;;;;;;;15.19;100.00;98540.13;2099303;28;20248;-71
2022/06/21 00:12:39;;;;;;;17.47;16.30;;;;;;;15.10;100.00;98542.94;2099646;28;20198;-72
2022/06/21 00:13:40;;;;;;;18.10;16.48;;;;;;;15.01;100.00;98538.81;2099507;28;20186;-72
2022/06/21 00:14:42;;;;;;;17.15;16.05;;;;;;;14.94;100.00;98537.50;2100048;28;20641;-72
2022/06/21 00:15:44;;;;;;;17.38;16.20;;;;;;;14.87;100.00;98547.22;2099982;28;20285;-72
2022/06/21 00:16:46;;;;;;;17.25;16.15;;;;;;;14.83;100.00;98549.78;2099644;28;20200;-72
2022/06/21 00:17:48;;;;;;;16.67;15.68;;;;;;;14.80;100.00;98541.63;2099546;28;20331;-72
2022/06/21 00:18:51;;;;;;;17.55;16.30;;;;;;;14.72;100.00;98546.00;2099317;28;20205;-72
2022/06/21 00:19:54;;;;;;;17.10;16.00;;;;;;;14.74;100.00;98546.44;2091264;28;20195;-72
2022/06/21 00:20:55;;;;;;;17.55;16.27;;;;;;;14.73;100.00;98549.47;2098810;28;20194;-72
2022/06/21 00:21:56;;;;;;;18.07;16.83;;;;;;;14.68;100.00;98551.25;2100050;28;20198;-73
2022/06/21 00:22:57;;;;;;;16.77;15.77;;;;;;;14.65;100.00;98546.53;2100024;28;20190;-72
2022/06/21 00:23:59;;;;;;;17.23;16.10;;;;;;;14.62;100.00;98549.13;2099996;28;20671;-72
2022/06/21 00:25:02;;;;;;;17.58;16.15;;;;;;;14.68;100.00;98555.81;2099936;28;20206;-72
2022/06/21 00:26:05;;;;;;;17.40;16.10;;;;;;;14.65;100.00;98567.25;2099933;28;20190;-72
2022/06/21 00:27:12;;;;;;;18.50;17.02;;;;;;;14.62;100.00;98567.91;2099992;28;20239;-72
2022/06/21 00:28:14;;;;;;;19.58;17.77;;;;;;;14.61;100.00;98571.72;2099393;28;20185;-72
2022/06/21 00:29:15;;;;;;;18.25;16.85;;;;;;;14.58;100.00;98578.53;2099393;28;20198;-72
2022/06/21 00:30:17;;;;;;;18.73;17.20;;;;;;;14.55;100.00;98575.75;2099959;28;20190;-72
2022/06/21 00:31:20;;;;;;;19.80;18.00;;;;;;;14.55;100.00;98573.84;2100037;28;20700;-72
2022/06/21 00:32:23;;;;;;;19.50;17.70;;;;;;;14.63;100.00;98566.81;2100039;28;20240;-71
2022/06/21 00:33:24;;;;;;;19.88;17.98;;;;;;;14.62;100.00;98567.91;2100144;28;20217;-72
2022/06/21 00:34:26;;;;;;;20.08;18.33;;;;;;;14.61;100.00;98561.00;2099572;28;20204;-72
2022/06/21 00:35:27;;;;;;;20.08;18.13;;;;;;;14.61;100.00;98564.47;2099493;28;20198;-73
2022/06/21 00:36:31;;;;;;;19.30;17.80;;;;;;;14.59;100.00;98561.31;2098721;28;20222;-72
2022/06/21 00:37:32;;;;;;;19.13;17.63;;;;;;;14.60;100.00;98560.22;2091410;28;20203;-73
2022/06/21 00:38:35;;;;;;;18.57;17.27;;;;;;;14.56;100.00;98548.56;2099306;28;20187;-72
2022/06/21 00:39:36;;;;;;;18.77;17.05;;;;;;;14.68;100.00;98562.00;2099851;28;20671;-72
2022/06/21 00:40:41;;;;;;;18.70;17.20;;;;;;;14.66;100.00;98564.22;2099152;28;20205;-73
2022/06/21 00:41:44;;;;;;;18.63;17.30;;;;;;;14.66;100.00;98569.59;2099384;28;20224;-73
2022/06/21 00:42:48;;;;;;;17.30;16.17;;;;;;;14.72;100.00;98564.00;2100048;28;20189;-73
2022/06/21 00:43:51;;;;;;;17.45;16.15;;;;;;;14.69;100.00;98566.25;2099831;28;20193;-72
2022/06/21 00:45:01;;;;;;;18.05;16.77;;;;;;;14.65;100.00;98551.91;2099357;28;20220;-72
2022/06/21 00:46:02;;;;;;;17.42;16.13;;;;;;;14.61;100.00;98552.94;2092308;28;20755;-73
2022/06/21 00:47:07;;;;;;;16.92;15.73;;;;;;;14.58;100.00;98551.69;2099341;28;20213;-72
2022/06/21 00:48:11;;;;;;;17.52;16.33;;;;;;;14.57;100.00;98542.06;2099806;28;20186;-72
2022/06/21 00:49:18;;;;;;;16.90;15.63;;;;;;;14.51;100.00;98545.28;2099108;28;20229;-72
2022/06/21 00:50:22;;;;;;;16.58;15.52;;;;;;;14.52;100.00;98558.41;2099257;28;20221;-72
2022/06/21 00:51:27;;;;;;;16.67;15.55;;;;;;;14.52;100.00;98554.94;2098655;28;20565;-73
2022/06/21 00:52:34;;;;;;;16.55;15.23;;;;;;;14.45;100.00;98552.81;2099264;28;20258;-72
2022/06/21 00:53:39;;;;;;;16.70;15.60;;;;;;;14.42;100.00;98553.41;2099812;28;20243;-72
2022/06/21 00:54:46;;;;;;;16.95;15.80;;;;;;;14.39;100.00;98562.94;2099836;28;20167;-72
2022/06/21 00:55:52;;;;;;;16.60;15.60;;;;;;;14.39;100.00;98546.81;2099712;28;20656;-72
2022/06/21 00:56:56;;;;;;;16.88;15.75;;;;;;;14.40;100.00;98547.59;2099712;28;20207;-72
2022/06/21 00:57:58;;;;;;;16.70;15.60;;;;;;;14.42;100.00;98554.22;2099076;28;20190;-72
2022/06/21 00:59:15;;;;;;;16.90;15.70;;;;;;;14.40;100.00;98555.66;2099117;28;20232;-72
2022/06/21 01:00:32;;;;;;;16.33;15.32;;;;;;;14.38;100.00;98553.31;2099867;28;20265;-72
2022/06/21 01:01:33;;;;;;;16.70;15.60;;;;;;;14.35;100.00;98566.63;2099064;28;20185;-72
2022/06/21 01:02:36;;;;;;;16.80;15.57;;;;;;;14.34;100.00;98568.53;2099109;28;20182;-72
2022/06/21 01:03:38;;;;;;;17.00;15.80;;;;;;;14.32;100.00;98562.69;2099710;28;20670;-72
2022/06/21 01:04:45;;;;;;;17.50;16.20;;;;;;;14.28;100.00;98555.66;2099772;28;20249;-72
2022/06/21 01:05:47;;;;;;;17.10;16.00;;;;;;;14.27;100.00;98548.72;2099843;28;20613;-72
2022/06/21 01:06:52;;;;;;;17.45;16.00;;;;;;;14.26;100.00;98555.19;2099353;28;20245;-72
2022/06/21 01:07:54;;;;;;;16.63;15.57;;;;;;;14.31;100.00;98552.28;2099646;28;20185;-72
2022/06/21 01:08:58;;;;;;;16.38;15.38;;;;;;;14.30;100.00;98554.19;2098996;28;20737;-72
2022/06/21 01:10:03;;;;;;;16.75;15.75;;;;;;;14.26;100.00;98555.19;2099101;28;20264;-72
2022/06/21 01:11:11;;;;;;;17.13;16.02;;;;;;;14.25;100.00;98556.31;2099209;28;20237;-72
2022/06/21 01:12:14;;;;;;;16.90;15.80;;;;;;;14.26;100.00;98555.19;2099371;28;20186;-72
2022/06/21 01:13:25;;;;;;;17.13;15.93;;;;;;;14.29;100.00;98560.69;2099037;28;20589;-73
2022/06/21 01:14:28;;;;;;;16.95;15.80;;;;;;;14.25;100.00;98559.00;2099628;28;20209;-72
2022/06/21 01:15:33;;;;;;;16.85;15.57;;;;;;;14.22;100.00;98554.28;2098793;28;20222;-72
2022/06/21 01:16:35;;;;;;;17.20;15.90;;;;;;;14.20;100.00;98553.84;2099138;28;20273;-72
2022/06/21 01:17:37;;;;;;;16.90;15.80;;;;;;;14.23;100.00;98562.00;2099074;28;20679;-72
2022/06/21 01:18:39;;;;;;;16.60;15.40;;;;;;;14.20;100.00;98548.47;2098963;28;20264;-73
2022/06/21 01:19:45;;;;;;;16.67;15.68;;;;;;;14.22;100.00;98547.00;2099592;28;20266;-72
2022/06/21 01:20:51;;;;;;;16.55;15.55;;;;;;;14.22;100.00;98549.69;2099865;28;20178;-73
2022/06/21 01:21:58;;;;;;;17.00;15.90;;;;;;;14.23;100.00;98545.91;2098540;28;20206;-72
2022/06/21 01:23:10;;;;;;;16.92;15.82;;;;;;;14.25;100.00;98548.28;2099146;28;20186;-73
2022/06/21 01:24:19;;;;;;;17.08;15.98;;;;;;;14.22;100.00;98540.88;2099553;28;20177;-73
2022/06/21 01:25:30;;;;;;;16.50;15.50;;;;;;;14.22;100.00;98546.22;2099790;28;20179;-72
2022/06/21 01:26:52;;;;;;;16.63;15.57;;;;;;;14.20;100.00;98551.16;2099600;28;20614;-72
2022/06/21 01:27:55;;;;;;;17.40;15.82;;;;;;;14.21;100.00;98552.72;2099640;28;20174;-73
2022/06/21 01:28:58;;;;;;;17.10;15.80;;;;;;;14.23;100.00;98542.44;2099200;28;20653;-72
2022/06/21 01:29:59;;;;;;;16.80;15.52;;;;;;;14.22;100.00;98548.91;2090632;28;20207;-72
2022/06/21 01:31:01;;;;;;;16.80;15.70;;;;;;;14.21;100.00;98537.41;2098910;28;20194;-73
2022/06/21 01:32:05;;;;;;;16.55;15.45;;;;;;;14.23;100.00;98539.75;2099075;28;20221;-72
2022/06/21 01:33:11;;;;;;;16.98;15.77;;;;;;;14.20;100.00;98535.06;2098907;28;20186;-72
2022/06/21 01:34:14;;;;;;;17.00;15.73;;;;;;;14.17;100.00;98541.88;2107074;28;20224;-72
2022/06/21 01:35:25;;;;;;;17.13;15.90;;;;;;;14.16;100.00;98532.28;2107103;28;20221;-72
2022/06/21 01:36:29;;;;;;;16.88;15.68;;;;;;;14.12;100.00;98534.03;2103875;28;20566;-73
2022/06/21 01:37:31;;;;;;;17.52;16.33;;;;;;;14.14;100.00;98542.53;2107773;28;20192;-72
2022/06/21 01:38:34;;;;;;;17.25;15.90;;;;;;;14.10;100.00;98536.25;2107120;28;20218;-72
2022/06/21 01:39:42;;;;;;;17.23;16.02;;;;;;;14.13;100.00;98538.28;2107424;28;20182;-72
2022/06/21 01:40:46;;;;;;;16.80;15.60;;;;;;;14.12;100.00;98532.13;2107071;28;20250;-73
2022/06/21 01:41:52;;;;;;;18.27;16.52;;;;;;;14.07;100.00;98548.44;2107083;28;20212;-72
2022/06/21 01:42:57;;;;;;;18.33;16.90;;;;;;;14.13;100.00;98555.16;2107235;28;20190;-72
2022/06/21 01:44:00;;;;;;;18.45;16.85;;;;;;;14.15;100.00;98544.88;2107934;28;20251;-72
2022/06/21 01:45:05;;;;;;;18.75;17.13;;;;;;;14.14;100.00;98548.66;2107001;28;20292;-72
2022/06/21 01:46:08;;;;;;;20.38;17.60;;;;;;;14.17;100.00;98551.81;2107397;28;20726;-72
2022/06/21 01:47:13;;;;;;;19.33;17.40;;;;;;;14.15;100.00;98549.44;2107005;28;20189;-72
2022/06/21 01:48:20;;;;;;;19.52;17.95;;;;;;;14.11;100.00;98543.19;2107128;28;20186;-72
2022/06/21 01:49:25;;;;;;;19.05;17.58;;;;;;;14.08;100.00;98541.19;2107953;28;20181;-73
2022/06/21 01:50:25;;;;;;;19.42;17.83;;;;;;;14.12;100.00;98545.53;2107682;28;20186;-72
2022/06/21 01:51:36;;;;;;;19.67;18.00;;;;;;;14.11;100.00;98552.03;2106864;28;20218;-72
2022/06/21 01:52:44;;;;;;;19.40;17.98;;;;;;;14.05;100.00;98550.66;2099885;28;20202;-72
2022/06/21 01:53:45;;;;;;;19.02;17.60;;;;;;;14.06;100.00;98546.84;2106381;28;20219;-73
2022/06/21 01:54:52;;;;;;;18.67;17.02;;;;;;;14.03;100.00;98552.91;2107189;28;20189;-72
2022/06/21 01:55:56;;;;;;;18.33;16.98;;;;;;;14.02;100.00;98550.53;2106925;28;20241;-72
2022/06/21 01:57:00;;;;;;;19.33;17.92;;;;;;;14.00;100.00;98545.53;2107226;28;20213;-72
2022/06/21 01:58:03;;;;;;;19.48;17.67;;;;;;;14.00;100.00;98550.88;2107673;28;20194;-72
2022/06/21 01:59:06;;;;;;;19.63;18.10;;;;;;;14.04;100.00;98564.41;2107681;28;20250;-73
2022/06/21 02:00:09;;;;;;;19.30;17.70;;;;;;;14.02;100.00;98554.00;2107639;28;20185;-72
2022/06/21 02:01:14;;;;;;;19.15;17.55;;;;;;;13.98;100.00;98552.31;2107615;28;20669;-72
2022/06/21 02:02:22;;;;;;;19.25;17.73;;;;;;;13.94;100.00;98554.88;2107781;28;20208;-72
2022/06/21 02:03:29;;;;;;;18.80;17.30;;;;;;;13.96;100.00;98558.00;2107857;28;20226;-72
2022/06/21 02:04:35;;;;;;;18.75;17.35;;;;;;;13.98;100.00;98558.44;2106621;28;20750;-72
2022/06/21 02:05:37;;;;;;;19.08;17.67;;;;;;;13.98;100.00;98553.09;2099094;28;20194;-72
2022/06/21 02:06:42;;;;;;;18.90;17.45;;;;;;;13.94;100.00;98560.25;2106705;28;20304;-72
2022/06/21 02:07:46;;;;;;;19.40;17.80;;;;;;;13.93;100.00;98547.94;2107567;28;20709;-72
2022/06/21 02:08:54;;;;;;;19.02;17.30;;;;;;;13.90;100.00;98548.63;2107774;28;20637;-72
2022/06/21 02:10:06;;;;;;;18.30;16.83;;;;;;;13.93;100.00;98542.59;2106869;28;20185;-72
2022/06/21 02:11:13;;;;;;;18.58;17.05;;;;;;;13.98;100.00;98546.94;2100406;28;20198;-72
2022/06/21 02:12:15;;;;;;;18.20;16.77;;;;;;;13.95;100.00;98551.06;2107221;28;20219;-72
2022/06/21 02:13:19;;;;;;;18.55;17.00;;;;;;;13.96;100.00;98551.88;2106738;28;20255;-73
2022/06/21 02:14:29;;;;;;;18.60;17.00;;;;;;;13.94;100.00;98560.25;2107060;28;20236;-72
2022/06/21 02:15:36;;;;;;;18.17;16.88;;;;;;;13.93;100.00;98556.00;2106780;28;20233;-72
2022/06/21 02:16:39;;;;;;;19.05;17.40;;;;;;;13.92;100.00;98567.84;2099591;28;20198;-73
2022/06/21 02:17:43;;;;;;;18.92;17.30;;;;;;;13.91;100.00;98554.78;2106932;28;20627;-72
2022/06/21 02:18:46;;;;;;;17.63;16.40;;;;;;;13.87;100.00;98554.63;2107521;28;20185;-72
2022/06/21 02:19:52;;;;;;;18.40;16.50;;;;;;;13.90;100.00;98564.72;2106790;28;20193;-72
2022/06/21 02:20:55;;;;;;;18.38;16.98;;;;;;;13.86;100.00;98558.41;2106388;28;20246;-73
2022/06/21 02:21:56;;;;;;;19.08;17.48;;;;;;;13.82;100.00;98552.94;2098354;28;20190;-72
2022/06/21 02:22:57;;;;;;;17.95;16.73;;;;;;;13.83;100.00;98557.19;2098674;28;20197;-72
2022/06/21 02:23:59;;;;;;;18.20;16.80;;;;;;;13.81;100.00;98561.28;2099071;28;20183;-72
2022/06/21 02:25:01;;;;;;;18.38;16.98;;;;;;;13.78;100.00;98553.91;2098999;28;20653;-72
2022/06/21 02:26:03;;;;;;;17.67;16.48;;;;;;;13.75;100.00;98560.72;2099067;28;20660;-73
2022/06/21 02:27:04;;;;;;;17.85;16.50;;;;;;;13.79;100.00;98563.53;2099124;28;20301;-70
2022/06/21 02:28:10;;;;;;;18.52;17.05;;;;;;;13.77;100.00;98561.19;2098278;28;20198;-71
2022/06/21 02:29:13;;;;;;;19.02;17.15;;;;;;;13.81;100.00;98563.97;2098456;28;20194;-71
2022/06/21 02:30:18;;;;;;;18.38;16.88;;;;;;;13.79;100.00;98560.84;2098287;28;20198;-71
2022/06/21 02:31:19;;;;;;;18.38;16.90;;;;;;;13.80;100.00;98568.56;2098289;28;20198;-71
2022/06/21 02:32:25;;;;;;;17.73;16.53;;;;;;;13.78;100.00;98570.00;2098519;28;20191;-70
2022/06/21 02:33:28;;;;;;;19.25;17.63;;;;;;;13.80;100.00;98567.78;2098562;28;20302;-71
2022/06/21 02:34:34;;;;;;;18.42;16.92;;;;;;;13.76;100.00;98570.34;2098300;28;20202;-70
2022/06/21 02:35:38;;;;;;;17.98;16.67;;;;;;;13.78;100.00;98575.38;2098623;28;20685;-71
2022/06/21 02:36:52;;;;;;;17.98;16.67;;;;;;;13.72;100.00;98574.78;2089958;28;20226;-71
2022/06/21 02:37:56;;;;;;;18.35;17.02;;;;;;;13.72;100.00;98577.47;2098434;28;20305;-70
2022/06/21 02:38:58;;;;;;;22.20;17.02;;;;;;;13.69;100.00;98575.44;2098897;28;20292;-71
2022/06/21 02:40:01;;;;;;;18.42;17.02;;;;;;;13.68;100.00;98583.81;2098901;28;20193;-70
2022/06/21 02:41:10;;;;;;;18.70;17.20;;;;;;;13.69;100.00;98570.09;2098462;28;20233;-70
2022/06/21 02:42:17;;;;;;;18.10;16.60;;;;;;;13.73;100.00;98579.06;2098441;28;20202;-70
2022/06/21 02:43:28;;;;;;;18.35;17.05;;;;;;;13.78;100.00;98576.16;2098213;28;20202;-71
2022/06/21 02:44:32;;;;;;;18.10;16.63;;;;;;;13.77;100.00;98576.50;2098633;28;20172;-70
2022/06/21 02:45:38;;;;;;;17.92;16.63;;;;;;;13.80;100.00;98575.81;2098945;28;20194;-71
2022/06/21 02:46:42;;;;;;;17.55;16.35;;;;;;;13.77;100.00;98571.91;2098223;28;20292;-71
2022/06/21 02:47:45;;;;;;;17.48;16.25;;;;;;;13.74;100.00;98569.09;2090361;28;20278;-70
2022/06/21 02:48:50;;;;;;;17.90;16.40;;;;;;;13.75;100.00;98570.66;2098308;28;20179;-71
2022/06/21 02:49:57;;;;;;;18.40;17.02;;;;;;;13.73;100.00;98572.91;2098869;28;20616;-71
2022/06/21 02:51:03;;;;;;;18.00;16.80;;;;;;;13.74;100.00;98566.44;2097665;28;20198;-71
2022/06/21 02:52:08;;;;;;;18.40;17.10;;;;;;;13.70;100.00;98574.31;2098451;28;20167;-71
2022/06/21 02:53:14;;;;;;;18.23;16.92;;;;;;;13.66;100.00;98565.38;2098939;28;20281;-71
2022/06/21 02:54:20;;;;;;;17.92;16.73;;;;;;;13.65;100.00;98569.19;2098973;28;20583;-71
2022/06/21 02:55:35;;;;;;;18.20;16.90;;;;;;;13.68;100.00;98575.78;2099001;28;20253;-71
2022/06/21 02:56:42;;;;;;;18.60;17.05;;;;;;;13.71;100.00;98573.22;2098925;28;20245;-71
2022/06/21 02:57:49;;;;;;;18.38;17.05;;;;;;;13.68;100.00;98575.78;2098109;28;20293;-70
2022/06/21 02:58:56;;;;;;;18.60;17.30;;;;;;;13.65;100.00;98573.75;2098315;28;20174;-70
2022/06/21 02:59:57;;;;;;;18.65;17.13;;;;;;;13.64;100.00;98572.16;2099054;28;20529;-70
2022/06/21 03:01:00;;;;;;;18.37;17.07;;;;;;;13.65;100.00;98571.06;2098392;28;20221;-70
2022/06/21 03:02:07;;;;;;;18.15;16.85;;;;;;;13.68;100.00;98570.41;2090291;28;20306;-71
2022/06/21 03:03:18;;;;;;;17.95;16.75;;;;;;;13.67;100.00;98582.25;2098312;28;20592;-70
2022/06/21 03:04:22;;;;;;;17.75;16.55;;;;;;;13.63;100.00;98575.97;2098556;28;20178;-71
2022/06/21 03:05:26;;;;;;;18.73;17.10;;;;;;;13.62;100.00;98577.06;2098851;28;20178;-70
2022/06/21 03:06:28;;;;;;;17.95;16.73;;;;;;;13.62;100.00;98579.75;2097751;28;20268;-71
2022/06/21 03:07:34;;;;;;;18.45;17.05;;;;;;;13.56;100.00;98582.66;2098132;28;20554;-71
2022/06/21 03:08:35;;;;;;;18.63;17.30;;;;;;;13.50;100.00;98589.31;2098917;28;20209;-71
2022/06/21 03:09:37;;;;;;;19.33;17.73;;;;;;;13.47;100.00;98589.97;2098312;28;20198;-71
2022/06/21 03:10:41;;;;;;;18.10;16.90;;;;;;;13.47;100.00;98587.28;2098107;28;20297;-70
2022/06/21 03:11:46;;;;;;;18.40;17.00;;;;;;;13.46;100.00;98582.22;2098274;28;20202;-71
2022/06/21 03:12:47;;;;;;;18.55;17.15;;;;;;;13.50;100.00;98581.28;2098693;28;20343;-71
2022/06/21 03:13:50;;;;;;;18.95;17.38;;;;;;;13.49;100.00;98586.97;2098723;28;20186;-71
2022/06/21 03:15:03;;;;;;;18.48;17.05;;;;;;;13.53;100.00;98582.50;2098359;28;20205;-71
2022/06/21 03:16:09;;;;;;;19.13;17.70;;;;;;;13.50;100.00;98583.16;2098030;28;20261;-70
2022/06/21 03:17:09;;;;;;;19.00;17.70;;;;;;;13.55;100.00;98591.81;2098229;28;20205;-70
2022/06/21 03:18:18;;;;;;;18.63;17.30;;;;;;;13.54;100.00;98590.22;2098000;28;20202;-71
2022/06/21 03:19:23;;;;;;;18.58;17.17;;;;;;;13.60;100.00;98598.06;2098252;28;20181;-71
2022/06/21 03:20:25;;;;;;;18.67;17.27;;;;;;;13.58;100.00;98591.13;2097956;28;20202;-71
2022/06/21 03:21:28;;;;;;;18.92;17.40;;;;;;;13.61;100.00;98605.00;2097912;28;20249;-70
2022/06/21 03:22:33;;;;;;;18.73;17.33;;;;;;;13.57;100.00;98594.94;2098684;28;20186;-70
2022/06/21 03:23:35;;;;;;;18.83;17.30;;;;;;;13.57;100.00;98599.50;2097999;28;20198;-72
2022/06/21 03:24:39;;;;;;;18.95;17.40;;;;;;;13.60;100.00;98603.44;2098123;28;20597;-71
2022/06/21 03:25:43;;;;;;;18.50;17.30;;;;;;;13.60;100.00;98608.78;2097990;28;20592;-71
2022/06/21 03:26:48;;;;;;;17.95;16.75;;;;;;;13.64;100.00;98604.34;2098094;28;20182;-70
2022/06/21 03:27:50;;;;;;;18.27;16.83;;;;;;;13.67;100.00;98607.16;2098688;28;20269;-71
2022/06/21 03:28:53;;;;;;;18.80;17.40;;;;;;;13.67;100.00;98606.38;2098661;28;20582;-70
2022/06/21 03:29:55;;;;;;;18.15;16.65;;;;;;;13.64;100.00;98599.78;2098652;28;20679;-71
2022/06/21 03:31:04;;;;;;;18.48;17.10;;;;;;;13.68;100.00;98602.59;2097944;28;20197;-71
2022/06/21 03:32:05;;;;;;;18.10;16.95;;;;;;;13.61;100.00;98605.00;2098381;28;20171;-70
2022/06/21 03:33:07;;;;;;;18.63;17.23;;;;;;;13.57;100.00;98611.03;2098212;28;20288;-70
2022/06/21 03:34:10;;;;;;;18.35;16.95;;;;;;;13.63;100.00;98614.28;2098066;28;20190;-70
2022/06/21 03:35:13;;;;;;;18.15;16.55;;;;;;;13.61;100.00;98610.34;2098597;28;20277;-70
2022/06/21 03:36:17;;;;;;;18.23;16.90;;;;;;;13.62;100.00;98607.34;2098160;28;20309;-70
2022/06/21 03:37:18;;;;;;;18.60;16.90;;;;;;;13.58;100.00;98607.22;2099086;28;20186;-71
2022/06/21 03:38:19;;;;;;;18.20;16.90;;;;;;;13.53;100.00;98610.09;2099761;28;20200;-71
2022/06/21 03:41:42;;;;;;;18.03;16.67;;;;;;;13.50;100.00;98610.75;2100398;28;20226;-71
2022/06/21 03:42:06;;;;;;;18.95;17.45;;;;;;;13.60;100.00;98619.50;2094163;28;20202;-70
2022/06/21 03:43:12;;;;;;;19.02;17.52;;;;;;;13.57;100.00;98616.38;2099742;28;20221;-71
2022/06/21 03:44:21;;;;;;;19.10;17.70;;;;;;;13.56;100.00;98606.78;2100473;28;20166;-70
2022/06/21 03:45:28;;;;;;;18.80;17.50;;;;;;;13.56;100.00;98625.53;2100598;28;20266;-71
2022/06/21 03:46:33;;;;;;;19.45;17.55;;;;;;;13.58;100.00;98611.81;2099873;28;20293;-70
2022/06/21 03:47:37;;;;;;;18.25;16.95;;;;;;;13.51;100.00;98617.69;2099968;28;20210;-70
2022/06/21 03:48:41;;;;;;;18.75;17.35;;;;;;;13.52;100.00;98619.25;2099834;28;20226;-71
2022/06/21 03:49:54;;;;;;;18.33;16.83;;;;;;;13.54;100.00;98605.50;2091747;28;20657;-71
2022/06/21 03:50:57;;;;;;;17.75;16.55;;;;;;;13.56;100.00;98604.09;2099528;28;20596;-70
2022/06/21 03:52:00;;;;;;;18.30;16.95;;;;;;;13.56;100.00;98606.78;2100373;28;20206;-70
2022/06/21 03:53:04;;;;;;;17.73;16.52;;;;;;;13.64;100.00;98612.38;2100258;28;20194;-70
2022/06/21 03:54:10;;;;;;;18.35;17.10;;;;;;;13.67;100.00;98601.81;2099800;28;20202;-70
2022/06/21 03:55:19;;;;;;;18.67;17.08;;;;;;;13.69;100.00;98606.81;2099739;28;20167;-71
2022/06/21 03:56:27;;;;;;;18.77;17.02;;;;;;;13.77;100.00;98611.34;2100334;28;20167;-71
2022/06/21 03:57:33;;;;;;;18.55;17.20;;;;;;;13.75;100.00;98614.34;2100007;28;20294;-71
2022/06/21 03:58:53;;;;;;;18.30;17.10;;;;;;;13.79;100.00;98617.16;2099792;28;20171;-71
2022/06/21 03:59:56;;;;;;;19.13;17.42;;;;;;;13.82;100.00;98614.63;2099797;28;20217;-71
2022/06/21 04:01:03;;;;;;;18.48;17.17;;;;;;;13.77;100.00;98624.75;2099620;28;20716;-71
2022/06/21 04:02:09;;;;;;;19.00;17.55;;;;;;;13.71;100.00;98615.31;2100212;28;20182;-70
2022/06/21 04:03:23;;;;;;;18.92;17.30;;;;;;;13.68;100.00;98610.63;2100298;28;20171;-70
2022/06/21 04:04:27;;;;;;;18.38;17.02;;;;;;;13.66;100.00;98613.63;2099985;28;20653;-70
2022/06/21 04:05:33;;;;;;;18.30;17.08;;;;;;;13.68;100.00;98614.09;2100169;28;20185;-71
2022/06/21 04:06:37;;;;;;;18.80;17.25;;;;;;;13.75;100.00;98600.94;2099867;28;20230;-70
2022/06/21 04:07:41;;;;;;;18.63;17.20;;;;;;;13.69;100.00;98601.47;2100246;28;20218;-70
2022/06/21 04:08:47;;;;;;;18.65;17.15;;;;;;;13.66;100.00;98602.13;2100224;28;20269;-72
2022/06/21 04:09:57;;;;;;;18.60;17.10;;;;;;;13.62;100.00;98599.31;2099722;28;20198;-70
2022/06/21 04:11:05;;;;;;;19.65;17.65;;;;;;;13.65;100.00;98608.59;2099474;28;20190;-70
2022/06/21 04:12:11;;;;;;;18.95;17.65;;;;;;;13.63;100.00;98597.41;2092210;28;20191;-71
2022/06/21 04:13:19;;;;;;;18.45;17.25;;;;;;;13.64;100.00;98598.97;2099781;28;20693;-71
2022/06/21 04:14:25;;;;;;;19.27;17.77;;;;;;;13.68;100.00;98599.91;2099772;28;20193;-70
2022/06/21 04:15:29;;;;;;;19.33;17.73;;;;;;;13.64;100.00;98599.78;2099697;28;20280;-71
2022/06/21 04:16:37;;;;;;;18.67;17.17;;;;;;;13.54;100.00;98592.09;2099397;28;20273;-71
2022/06/21 04:17:45;;;;;;;18.15;16.50;;;;;;;13.50;100.00;98593.88;2100286;28;20186;-71
2022/06/21 04:18:51;;;;;;;17.88;16.48;;;;;;;13.49;100.00;98598.47;2100295;28;20167;-70
2022/06/21 04:19:54;;;;;;;18.95;17.35;;;;;;;13.47;100.00;98592.66;2099352;28;20202;-71
2022/06/21 04:21:03;;;;;;;18.88;17.55;;;;;;;13.45;100.00;98597.53;2098944;28;20183;-70
2022/06/21 04:22:08;;;;;;;19.95;18.30;;;;;;;13.43;100.00;98594.41;2099613;28;20289;-70
2022/06/21 04:23:14;;;;;;;19.35;17.85;;;;;;;13.37;100.00;98595.69;2099649;28;20205;-70
2022/06/21 04:24:23;;;;;;;19.35;17.95;;;;;;;13.38;100.00;98591.94;2099491;28;20174;-71
2022/06/21 04:25:30;;;;;;;19.05;17.50;;;;;;;13.37;100.00;98589.53;2099717;28;20218;-70
2022/06/21 04:26:34;;;;;;;18.92;17.45;;;;;;;13.35;100.00;98592.56;2099453;28;20171;-71
2022/06/21 04:27:45;;;;;;;19.50;18.00;;;;;;;13.34;100.00;98596.34;2100181;28;20186;-71
2022/06/21 04:28:49;;;;;;;18.92;17.63;;;;;;;13.32;100.00;98595.13;2100140;28;20258;-71
2022/06/21 04:29:55;;;;;;;18.70;17.15;;;;;;;13.29;100.00;98588.50;2100075;28;20178;-71
2022/06/21 04:31:01;;;;;;;19.05;17.65;;;;;;;13.33;100.00;98602.03;2100007;28;20175;-70
2022/06/21 04:32:09;;;;;;;19.35;17.77;;;;;;;13.34;100.00;98609.75;2100198;28;20205;-71
2022/06/21 04:33:14;;;;;;;20.23;18.52;;;;;;;13.33;100.00;98605.50;2099986;28;20192;-70
2022/06/21 04:34:19;;;;;;;20.95;19.08;;;;;;;13.36;100.00;98593.34;2100124;28;20197;-71
2022/06/21 04:35:22;;;;;;;21.02;19.27;;;;;;;13.40;100.00;98605.00;2099248;28;20680;-71
2022/06/21 04:36:27;;;;;;;20.83;18.98;;;;;;;13.43;100.00;98601.66;2098917;28;20222;-70
2022/06/21 04:37:34;;;;;;;20.27;18.67;;;;;;;13.38;100.00;98605.31;2100225;28;20217;-71
2022/06/21 04:38:41;;;;;;;21.00;19.05;;;;;;;13.34;100.00;98600.94;2100001;28;20262;-70
2022/06/21 04:39:45;;;;;;;21.13;19.38;;;;;;;13.28;100.00;98608.34;2101092;28;20236;-79
2022/06/21 04:40:50;;;;;;;20.63;19.02;;;;;;;13.24;100.00;98607.44;2101283;28;20572;-78
2022/06/21 04:41:53;;;;;;;20.02;18.48;;;;;;;13.27;100.00;98612.94;2100691;28;20648;-78
2022/06/21 04:42:58;;;;;;;20.77;19.15;;;;;;;13.27;100.00;98612.94;2100797;28;20199;-78
2022/06/21 04:44:03;;;;;;;19.67;18.17;;;;;;;13.27;100.00;98601.44;2100411;28;20260;-78
2022/06/21 04:45:11;;;;;;;20.20;18.30;;;;;;;13.32;100.00;98605.84;2100483;28;20224;-78
2022/06/21 04:46:17;;;;;;;20.02;18.30;;;;;;;13.36;100.00;98602.16;2100618;28;20665;-78
2022/06/21 04:47:23;;;;;;;19.52;18.13;;;;;;;13.43;100.00;98605.13;2100899;28;20174;-78
2022/06/21 04:48:31;;;;;;;20.13;18.55;;;;;;;13.56;100.00;98611.34;2100365;28;20201;-78
2022/06/21 04:49:36;;;;;;;20.48;18.45;;;;;;;13.64;100.00;98598.97;2099944;28;20285;-78
2022/06/21 04:50:40;;;;;;;19.38;17.88;;;;;;;13.66;100.00;98594.09;2100587;28;20202;-78
2022/06/21 04:51:49;;;;;;;19.58;18.17;;;;;;;13.71;100.00;98593.88;2099954;28;20708;-78
2022/06/21 04:52:56;;;;;;;20.02;18.17;;;;;;;13.79;100.00;98601.06;2100189;28;20167;-78
2022/06/21 04:54:02;;;;;;;19.65;18.25;;;;;;;13.81;100.00;98596.97;2100767;28;20545;-78
2022/06/21 04:55:03;;;;;;;18.70;17.35;;;;;;;13.81;100.00;98596.97;2100904;28;20183;-79
2022/06/21 04:56:08;;;;;;;19.67;17.97;;;;;;;13.85;100.00;98594.41;2100867;28;20195;-78